sensor_id;sensor_type;location;lat;lon;timestamp;pressure;altitude;pressure_sealevel;temperature;humidity
54512;BME280;40419;47.438;19.026;2023-02-16T00:00:47;101189.16;;;0.22;100.00
54512;BME280;40419;47.438;19.026;2023-02-16T00:03:17;101186.59;;;0.08;100.00
54512;BME280;40419;47.438;19.026;2023-02-16T00:05:43;101190.22;;;0.20;100.00
54512;BME280;40419;47.438;19.026;2023-02-16T00:08:11;101185.31;;;0.13;100.00
54512;BME280;40419;47.438;19.026;2023-02-16T00:10:38;101185.81;;;0.06;100.00
54512;BME280;40419;47.438;19.026;2023-02-16T00:13:26;101182.13;;;0.08;100.00
54512;BME280;40419;47.438;19.026;2023-02-16T00:16:23;101182.00;;;0.10;100.00
54512;BME280;40419;47.438;19.026;2023-02-16T00:18:49;101191.81;;;0.09;100.00
54512;BME280;40419;47.438;19.026;2023-02-16T00:21:18;101186.81;;;0.05;100.00
54512;BME280;40419;47.438;19.026;2023-02-16T00:23:46;101186.03;;;0.03;100.00
54512;BME280;40419;47.438;19.026;2023-02-16T00:26:18;101180.22;;;0.23;100.00
54512;BME280;40419;47.438;19.026;2023-02-16T00:28:51;101182.34;;;0.18;100.00
54512;BME280;40419;47.438;19.026;2023-02-16T00:31:25;101187.84;;;0.02;100.00
54512;BME280;40419;47.438;19.026;2023-02-16T00:33:57;101172.94;;;-0.01;100.00
54512;BME280;40419;47.438;19.026;2023-02-16T00:36:25;101176.53;;;-0.02;100.00
54512;BME280;40419;47.438;19.026;2023-02-16T00:38:51;101163.41;;;-0.05;100.00
54512;BME280;40419;47.438;19.026;2023-02-16T00:41:22;101163.63;;;-0.08;100.00
54512;BME280;40419;47.438;19.026;2023-02-16T00:44:26;101165.75;;;-0.13;100.00
54512;BME280;40419;47.438;19.026;2023-02-16T00:49:38;101176.31;;;-0.11;100.00
54512;BME280;40419;47.438;19.026;2023-02-16T00:54:56;101161.56;;;-0.30;100.00
54512;BME280;40419;47.438;19.026;2023-02-16T00:57:26;101163.53;;;-0.33;100.00
54512;BME280;40419;47.438;19.026;2023-02-16T01:00:12;101157.66;;;-0.11;100.00
54512;BME280;40419;47.438;19.026;2023-02-16T01:02:43;101156.97;;;-0.28;100.00
54512;BME280;40419;47.438;19.026;2023-02-16T01:05:12;101151.44;;;-0.25;100.00
54512;BME280;40419;47.438;19.026;2023-02-16T01:07:38;101154.16;;;-0.12;100.00
54512;BME280;40419;47.438;19.026;2023-02-16T01:10:22;101156.88;;;-0.26;100.00
54512;BME280;40419;47.438;19.026;2023-02-16T01:13:07;101147.06;;;-0.26;100.00
54512;BME280;40419;47.438;19.026;2023-02-16T01:15:36;101145.28;;;-0.25;100.00
54512;BME280;40419;47.438;19.026;2023-02-16T01:18:03;101147.22;;;-0.14;100.00
54512;BME280;40419;47.438;19.026;2023-02-16T01:20:32;101146.59;;;-0.18;100.00
54512;BME280;40419;47.438;19.026;2023-02-16T01:23:00;101147.94;;;-0.25;100.00
54512;BME280;40419;47.438;19.026;2023-02-16T01:25:30;101143.97;;;-0.32;100.00
54512;BME280;40419;47.438;19.026;2023-02-16T01:27:58;101139.38;;;-0.30;100.00
54512;BME280;40419;47.438;19.026;2023-02-16T01:30:25;101139.28;;;-0.29;100.00
54512;BME280;40419;47.438;19.026;2023-02-16T01:32:53;101139.59;;;-0.33;100.00
54512;BME280;40419;47.438;19.026;2023-02-16T01:35:27;101132.22;;;-0.43;100.00
54512;BME280;40419;47.438;19.026;2023-02-16T01:37:56;101128.53;;;-0.27;100.00
54512;BME280;40419;47.438;19.026;2023-02-16T01:45:50;101137.03;;;-0.35;100.00
54512;BME280;40419;47.438;19.026;2023-02-16T01:48:27;101120.63;;;-0.42;100.00
54512;BME280;40419;47.438;19.026;2023-02-16T01:51:24;101128.19;;;-0.36;100.00
54512;BME280;40419;47.438;19.026;2023-02-16T01:54:11;101123.69;;;-0.48;100.00
54512;BME280;40419;47.438;19.026;2023-02-16T01:56:42;101128.13;;;-0.48;100.00
54512;BME280;40419;47.438;19.026;2023-02-16T02:02:23;101124.00;;;-0.52;100.00
54512;BME280;40419;47.438;19.026;2023-02-16T02:05:06;101123.31;;;-0.56;100.00
54512;BME280;40419;47.438;19.026;2023-02-16T02:07:59;101120.41;;;-0.66;100.00
54512;BME280;40419;47.438;19.026;2023-02-16T02:15:40;101098.69;;;-0.45;100.00
54512;BME280;40419;47.438;19.026;2023-02-16T02:18:10;101097.09;;;-0.48;100.00
54512;BME280;40419;47.438;19.026;2023-02-16T02:24:07;101092.72;;;-0.49;100.00
54512;BME280;40419;47.438;19.026;2023-02-16T02:35:25;101086.94;;;-0.56;100.00
54512;BME280;40419;47.438;19.026;2023-02-16T02:38:23;101092.91;;;-0.52;100.00
54512;BME280;40419;47.438;19.026;2023-02-16T02:46:07;101089.75;;;-0.72;100.00
54512;BME280;40419;47.438;19.026;2023-02-16T02:48:38;101089.53;;;-0.68;100.00
54512;BME280;40419;47.438;19.026;2023-02-16T02:56:46;101093.56;;;-1.75;100.00
54512;BME280;40419;47.438;19.026;2023-02-16T02:59:37;101088.72;;;-1.25;100.00
54512;BME280;40419;47.438;19.026;2023-02-16T03:02:29;101093.63;;;-1.04;100.00
54512;BME280;40419;47.438;19.026;2023-02-16T03:04:58;101090.03;;;-1.03;100.00
54512;BME280;40419;47.438;19.026;2023-02-16T03:07:25;101088.00;;;-1.00;100.00
54512;BME280;40419;47.438;19.026;2023-02-16T03:10:18;101083.06;;;-0.92;100.00
54512;BME280;40419;47.438;19.026;2023-02-16T03:13:12;101090.34;;;-0.81;100.00
54512;BME280;40419;47.438;19.026;2023-02-16T03:15:44;101083.38;;;-0.69;100.00
54512;BME280;40419;47.438;19.026;2023-02-16T03:18:11;101093.06;;;-0.68;100.00
54512;BME280;40419;47.438;19.026;2023-02-16T03:20:57;101079.94;;;-0.71;100.00
54512;BME280;40419;47.438;19.026;2023-02-16T03:23:43;101075.19;;;-0.66;100.00
54512;BME280;40419;47.438;19.026;2023-02-16T03:26:31;101082.59;;;-0.71;100.00
54512;BME280;40419;47.438;19.026;2023-02-16T03:29:16;101075.72;;;-0.74;100.00
54512;BME280;40419;47.438;19.026;2023-02-16T03:31:48;101078.56;;;-0.77;100.00
54512;BME280;40419;47.438;19.026;2023-02-16T03:34:20;101082.25;;;-1.07;100.00
54512;BME280;40419;47.438;19.026;2023-02-16T03:36:55;101080.09;;;-1.72;100.00
54512;BME280;40419;47.438;19.026;2023-02-16T03:39:28;101072.31;;;-1.75;100.00
54512;BME280;40419;47.438;19.026;2023-02-16T03:41:56;101077.06;;;-1.66;100.00
54512;BME280;40419;47.438;19.026;2023-02-16T03:44:23;101076.97;;;-1.35;100.00
54512;BME280;40419;47.438;19.026;2023-02-16T03:46:54;101079.34;;;-1.31;100.00
54512;BME280;40419;47.438;19.026;2023-02-16T03:49:20;101081.16;;;-1.31;100.00
54512;BME280;40419;47.438;19.026;2023-02-16T03:51:50;101075.25;;;-1.22;100.00
54512;BME280;40419;47.438;19.026;2023-02-16T03:54:20;101072.44;;;-1.06;100.00
54512;BME280;40419;47.438;19.026;2023-02-16T03:56:48;101077.44;;;-0.87;100.00
54512;BME280;40419;47.438;19.026;2023-02-16T03:59:13;101068.53;;;-0.86;100.00
54512;BME280;40419;47.438;19.026;2023-02-16T04:01:39;101072.53;;;-0.93;100.00
54512;BME280;40419;47.438;19.026;2023-02-16T04:04:09;101077.03;;;-1.22;100.00
54512;BME280;40419;47.438;19.026;2023-02-16T04:06:39;101075.72;;;-1.30;100.00
54512;BME280;40419;47.438;19.026;2023-02-16T04:09:05;101069.97;;;-1.51;100.00
54512;BME280;40419;47.438;19.026;2023-02-16T04:11:33;101071.91;;;-1.98;100.00
54512;BME280;40419;47.438;19.026;2023-02-16T04:14:19;101069.63;;;-2.04;100.00
54512;BME280;40419;47.438;19.026;2023-02-16T04:16:45;101069.09;;;-1.66;100.00
54512;BME280;40419;47.438;19.026;2023-02-16T04:19:13;101063.22;;;-1.56;100.00
54512;BME280;40419;47.438;19.026;2023-02-16T04:21:38;101068.03;;;-1.77;100.00
54512;BME280;40419;47.438;19.026;2023-02-16T04:24:09;101075.50;;;-1.84;100.00
54512;BME280;40419;47.438;19.026;2023-02-16T04:26:34;101072.13;;;-1.72;100.00
54512;BME280;40419;47.438;19.026;2023-02-16T04:29:00;101066.41;;;-1.94;100.00
54512;BME280;40419;47.438;19.026;2023-02-16T04:31:32;101071.16;;;-2.30;100.00
54512;BME280;40419;47.438;19.026;2023-02-16T04:34:03;101080.84;;;-2.29;100.00
54512;BME280;40419;47.438;19.026;2023-02-16T04:36:28;101085.06;;;-2.41;100.00
54512;BME280;40419;47.438;19.026;2023-02-16T04:38:55;101083.50;;;-2.15;100.00
54512;BME280;40419;47.438;19.026;2023-02-16T04:41:21;101082.06;;;-1.90;100.00
54512;BME280;40419;47.438;19.026;2023-02-16T04:43:51;101084.66;;;-1.59;100.00
54512;BME280;40419;47.438;19.026;2023-02-16T04:46:16;101074.09;;;-1.47;100.00
54512;BME280;40419;47.438;19.026;2023-02-16T04:48:48;101074.13;;;-1.32;100.00
54512;BME280;40419;47.438;19.026;2023-02-16T04:51:18;101074.56;;;-1.26;100.00
54512;BME280;40419;47.438;19.026;2023-02-16T04:53:46;101091.53;;;-1.14;100.00
54512;BME280;40419;47.438;19.026;2023-02-16T04:56:12;101078.06;;;-1.11;100.00
54512;BME280;40419;47.438;19.026;2023-02-16T04:58:40;101080.28;;;-1.17;100.00
54512;BME280;40419;47.438;19.026;2023-02-16T05:01:21;101079.22;;;-1.29;100.00
54512;BME280;40419;47.438;19.026;2023-02-16T05:03:49;101080.75;;;-1.25;100.00
54512;BME280;40419;47.438;19.026;2023-02-16T05:06:18;101076.09;;;-1.21;100.00
54512;BME280;40419;47.438;19.026;2023-02-16T05:08:46;101070.53;;;-1.60;100.00
54512;BME280;40419;47.438;19.026;2023-02-16T05:11:15;101069.94;;;-1.65;100.00
54512;BME280;40419;47.438;19.026;2023-02-16T05:14:02;101061.69;;;-1.61;100.00
54512;BME280;40419;47.438;19.026;2023-02-16T05:16:51;101069.38;;;-1.56;100.00
54512;BME280;40419;47.438;19.026;2023-02-16T05:19:16;101076.41;;;-1.55;100.00
54512;BME280;40419;47.438;19.026;2023-02-16T05:21:46;101076.59;;;-1.58;100.00
54512;BME280;40419;47.438;19.026;2023-02-16T05:24:17;101070.72;;;-1.34;100.00
54512;BME280;40419;47.438;19.026;2023-02-16T05:26:44;101073.38;;;-1.34;100.00
54512;BME280;40419;47.438;19.026;2023-02-16T05:29:12;101080.56;;;-1.36;100.00
54512;BME280;40419;47.438;19.026;2023-02-16T05:31:38;101076.28;;;-1.39;100.00
54512;BME280;40419;47.438;19.026;2023-02-16T05:34:06;101079.34;;;-1.31;100.00
54512;BME280;40419;47.438;19.026;2023-02-16T05:36:31;101062.84;;;-1.36;100.00
54512;BME280;40419;47.438;19.026;2023-02-16T05:39:02;101054.00;;;-1.36;100.00
54512;BME280;40419;47.438;19.026;2023-02-16T05:41:30;101062.16;;;-1.39;100.00
54512;BME280;40419;47.438;19.026;2023-02-16T05:44:02;101069.28;;;-1.40;100.00
54512;BME280;40419;47.438;19.026;2023-02-16T05:46:33;101063.09;;;-1.40;100.00
54512;BME280;40419;47.438;19.026;2023-02-16T05:49:05;101064.53;;;-1.20;100.00
54512;BME280;40419;47.438;19.026;2023-02-16T05:51:34;101067.38;;;-1.23;100.00
54512;BME280;40419;47.438;19.026;2023-02-16T05:54:07;101063.97;;;-1.40;100.00
54512;BME280;40419;47.438;19.026;2023-02-16T05:56:35;101075.81;;;-1.74;100.00
54512;BME280;40419;47.438;19.026;2023-02-16T05:59:01;101063.06;;;-1.98;100.00
54512;BME280;40419;47.438;19.026;2023-02-16T06:01:27;101063.56;;;-1.77;100.00
54512;BME280;40419;47.438;19.026;2023-02-16T06:03:56;101062.81;;;-1.79;100.00
54512;BME280;40419;47.438;19.026;2023-02-16T06:06:24;101053.25;;;-1.96;100.00
54512;BME280;40419;47.438;19.026;2023-02-16T06:08:52;101056.00;;;-1.69;100.00
54512;BME280;40419;47.438;19.026;2023-02-16T06:11:17;101054.97;;;-1.52;100.00
54512;BME280;40419;47.438;19.026;2023-02-16T06:14:06;101055.91;;;-1.96;100.00
54512;BME280;40419;47.438;19.026;2023-02-16T06:16:33;101066.16;;;-1.61;100.00
54512;BME280;40419;47.438;19.026;2023-02-16T06:19:01;101063.56;;;-1.48;100.00
54512;BME280;40419;47.438;19.026;2023-02-16T06:21:27;101068.59;;;-1.72;100.00
54512;BME280;40419;47.438;19.026;2023-02-16T06:23:56;101063.38;;;-1.45;100.00
54512;BME280;40419;47.438;19.026;2023-02-16T06:26:22;101073.34;;;-1.49;100.00
54512;BME280;40419;47.438;19.026;2023-02-16T06:28:50;101074.47;;;-1.82;100.00
54512;BME280;40419;47.438;19.026;2023-02-16T06:31:21;101067.78;;;-1.58;100.00
54512;BME280;40419;47.438;19.026;2023-02-16T06:33:48;101060.47;;;-1.55;100.00
54512;BME280;40419;47.438;19.026;2023-02-16T06:36:14;101063.38;;;-1.31;100.00
54512;BME280;40419;47.438;19.026;2023-02-16T06:38:39;101073.19;;;-1.60;100.00
54512;BME280;40419;47.438;19.026;2023-02-16T06:41:07;101063.09;;;-1.69;100.00
54512;BME280;40419;47.438;19.026;2023-02-16T06:43:37;101059.03;;;-1.75;100.00
54512;BME280;40419;47.438;19.026;2023-02-16T06:46:05;101067.47;;;-1.68;100.00
54512;BME280;40419;47.438;19.026;2023-02-16T06:48:33;101064.63;;;-1.65;100.00
54512;BME280;40419;47.438;19.026;2023-02-16T06:50:59;101058.66;;;-1.69;100.00
54512;BME280;40419;47.438;19.026;2023-02-16T06:53:24;101063.19;;;-1.85;100.00
54512;BME280;40419;47.438;19.026;2023-02-16T06:55:50;101055.50;;;-1.75;100.00
54512;BME280;40419;47.438;19.026;2023-02-16T06:58:20;101053.03;;;-1.79;100.00
54512;BME280;40419;47.438;19.026;2023-02-16T07:00:46;101057.78;;;-1.84;100.00
54512;BME280;40419;47.438;19.026;2023-02-16T07:03:24;101054.25;;;-1.84;100.00
54512;BME280;40419;47.438;19.026;2023-02-16T07:05:51;101057.41;;;-1.63;100.00
54512;BME280;40419;47.438;19.026;2023-02-16T07:08:22;101047.34;;;-1.72;100.00
54512;BME280;40419;47.438;19.026;2023-02-16T07:10:51;101051.19;;;-1.76;100.00
54512;BME280;40419;47.438;19.026;2023-02-16T07:13:19;101050.97;;;-1.73;100.00
54512;BME280;40419;47.438;19.026;2023-02-16T07:15:50;101049.53;;;-1.93;100.00
54512;BME280;40419;47.438;19.026;2023-02-16T07:18:22;101052.78;;;-1.88;100.00
54512;BME280;40419;47.438;19.026;2023-02-16T07:20:48;101058.00;;;-1.87;100.00
54512;BME280;40419;47.438;19.026;2023-02-16T07:23:15;101057.41;;;-1.77;100.00
54512;BME280;40419;47.438;19.026;2023-02-16T07:25:44;101050.59;;;-1.82;100.00
54512;BME280;40419;47.438;19.026;2023-02-16T07:28:09;101059.31;;;-1.65;100.00
54512;BME280;40419;47.438;19.026;2023-02-16T07:30:37;101058.75;;;-1.70;100.00
54512;BME280;40419;47.438;19.026;2023-02-16T07:33:09;101060.91;;;-1.48;100.00
54512;BME280;40419;47.438;19.026;2023-02-16T07:35:37;101056.84;;;-1.25;100.00
54512;BME280;40419;47.438;19.026;2023-02-16T07:38:07;101053.94;;;-1.08;100.00
54512;BME280;40419;47.438;19.026;2023-02-16T07:40:36;101047.88;;;-1.10;100.00
54512;BME280;40419;47.438;19.026;2023-02-16T07:43:04;101043.97;;;-1.04;100.00
54512;BME280;40419;47.438;19.026;2023-02-16T07:45:30;101038.69;;;-0.91;100.00
54512;BME280;40419;47.438;19.026;2023-02-16T07:48:00;101043.19;;;-0.92;100.00
54512;BME280;40419;47.438;19.026;2023-02-16T07:50:28;101037.16;;;-0.81;100.00
54512;BME280;40419;47.438;19.026;2023-02-16T07:52:56;101046.94;;;-0.54;100.00
54512;BME280;40419;47.438;19.026;2023-02-16T07:55:26;101039.75;;;-0.39;100.00
54512;BME280;40419;47.438;19.026;2023-02-16T07:57:52;101046.13;;;-0.42;100.00
54512;BME280;40419;47.438;19.026;2023-02-16T08:00:23;101043.88;;;-0.35;100.00
54512;BME280;40419;47.438;19.026;2023-02-16T08:02:54;101055.81;;;-0.41;100.00
54512;BME280;40419;47.438;19.026;2023-02-16T08:05:19;101058.47;;;-0.41;100.00
54512;BME280;40419;47.438;19.026;2023-02-16T08:07:50;101054.66;;;-0.24;100.00
54512;BME280;40419;47.438;19.026;2023-02-16T08:10:21;101053.63;;;-0.08;100.00
54512;BME280;40419;47.438;19.026;2023-02-16T08:12:47;101050.66;;;-0.04;100.00
54512;BME280;40419;47.438;19.026;2023-02-16T08:15:17;101057.78;;;-0.04;100.00
54512;BME280;40419;47.438;19.026;2023-02-16T08:17:45;101063.88;;;0.11;100.00
54512;BME280;40419;47.438;19.026;2023-02-16T08:20:11;101064.63;;;0.13;100.00
54512;BME280;40419;47.438;19.026;2023-02-16T08:22:39;101059.72;;;0.32;100.00
54512;BME280;40419;47.438;19.026;2023-02-16T08:25:06;101063.31;;;0.31;100.00
54512;BME280;40419;47.438;19.026;2023-02-16T08:27:35;101057.25;;;0.29;100.00
54512;BME280;40419;47.438;19.026;2023-02-16T08:30:01;101059.41;;;0.24;100.00
54512;BME280;40419;47.438;19.026;2023-02-16T08:32:31;101066.00;;;0.44;100.00
54512;BME280;40419;47.438;19.026;2023-02-16T08:34:57;101064.78;;;0.74;100.00
54512;BME280;40419;47.438;19.026;2023-02-16T08:37:25;101069.72;;;1.04;100.00
54512;BME280;40419;47.438;19.026;2023-02-16T08:39:51;101072.25;;;0.82;100.00
54512;BME280;40419;47.438;19.026;2023-02-16T08:42:20;101077.03;;;0.77;100.00
54512;BME280;40419;47.438;19.026;2023-02-16T08:44:48;101074.91;;;0.69;100.00
54512;BME280;40419;47.438;19.026;2023-02-16T08:47:15;101065.94;;;0.83;100.00
54512;BME280;40419;47.438;19.026;2023-02-16T08:49:44;101066.16;;;0.80;100.00
54512;BME280;40419;47.438;19.026;2023-02-16T08:52:12;101067.88;;;0.81;100.00
54512;BME280;40419;47.438;19.026;2023-02-16T08:54:38;101074.25;;;0.91;100.00
54512;BME280;40419;47.438;19.026;2023-02-16T08:57:06;101074.16;;;1.17;100.00
54512;BME280;40419;47.438;19.026;2023-02-16T08:59:37;101075.78;;;1.06;100.00
54512;BME280;40419;47.438;19.026;2023-02-16T09:02:05;101068.13;;;1.02;100.00
54512;BME280;40419;47.438;19.026;2023-02-16T09:04:30;101076.63;;;1.07;100.00
54512;BME280;40419;47.438;19.026;2023-02-16T09:06:56;101067.66;;;1.21;100.00
54512;BME280;40419;47.438;19.026;2023-02-16T09:09:28;101069.44;;;1.45;100.00
54512;BME280;40419;47.438;19.026;2023-02-16T09:11:54;101058.84;;;1.56;100.00
54512;BME280;40419;47.438;19.026;2023-02-16T09:14:22;101065.44;;;1.63;100.00
54512;BME280;40419;47.438;19.026;2023-02-16T09:16:52;101055.97;;;1.70;100.00
54512;BME280;40419;47.438;19.026;2023-02-16T09:19:20;101067.16;;;1.75;100.00
54512;BME280;40419;47.438;19.026;2023-02-16T09:21:47;101064.38;;;1.77;100.00
54512;BME280;40419;47.438;19.026;2023-02-16T09:24:17;101068.72;;;1.67;100.00
54512;BME280;40419;47.438;19.026;2023-02-16T09:26:46;101058.38;;;1.62;100.00
54512;BME280;40419;47.438;19.026;2023-02-16T09:29:14;101056.16;;;1.91;100.00
54512;BME280;40419;47.438;19.026;2023-02-16T09:31:42;101057.69;;;1.83;100.00
54512;BME280;40419;47.438;19.026;2023-02-16T09:34:15;101057.63;;;1.84;100.00
54512;BME280;40419;47.438;19.026;2023-02-16T09:36:44;101058.47;;;1.96;100.00
54512;BME280;40419;47.438;19.026;2023-02-16T09:39:12;101052.69;;;2.25;100.00
54512;BME280;40419;47.438;19.026;2023-02-16T09:42:01;101053.91;;;2.32;100.00
54512;BME280;40419;47.438;19.026;2023-02-16T09:46:58;101060.84;;;2.35;100.00
54512;BME280;40419;47.438;19.026;2023-02-16T09:49:36;101053.44;;;2.27;100.00
54512;BME280;40419;47.438;19.026;2023-02-16T09:54:58;101052.97;;;2.56;100.00
54512;BME280;40419;47.438;19.026;2023-02-16T10:02:27;101048.44;;;2.90;100.00
54512;BME280;40419;47.438;19.026;2023-02-16T10:10:39;101039.78;;;3.42;100.00
54512;BME280;40419;47.438;19.026;2023-02-16T10:13:23;101056.56;;;3.76;100.00
54512;BME280;40419;47.438;19.026;2023-02-16T10:15:54;101046.97;;;3.95;100.00
54512;BME280;40419;47.438;19.026;2023-02-16T10:18:36;101048.81;;;4.15;100.00
54512;BME280;40419;47.438;19.026;2023-02-16T10:21:12;101039.84;;;4.26;100.00
54512;BME280;40419;47.438;19.026;2023-02-16T10:26:39;101038.38;;;4.53;100.00
54512;BME280;40419;47.438;19.026;2023-02-16T10:29:14;101050.97;;;4.52;100.00
54512;BME280;40419;47.438;19.026;2023-02-16T10:47:47;101027.56;;;5.05;100.00
54512;BME280;40419;47.438;19.026;2023-02-16T10:52:50;101015.84;;;5.15;100.00
54512;BME280;40419;47.438;19.026;2023-02-16T10:55:16;101007.34;;;5.01;100.00
54512;BME280;40419;47.438;19.026;2023-02-16T10:57:50;101005.09;;;5.06;100.00
54512;BME280;40419;47.438;19.026;2023-02-16T11:00:17;101003.81;;;5.10;100.00
54512;BME280;40419;47.438;19.026;2023-02-16T11:02:49;101007.09;;;5.13;100.00
54512;BME280;40419;47.438;19.026;2023-02-16T11:05:36;101003.66;;;5.11;100.00
54512;BME280;40419;47.438;19.026;2023-02-16T11:08:06;100999.31;;;5.20;100.00
54512;BME280;40419;47.438;19.026;2023-02-16T11:10:55;100999.31;;;5.30;100.00
54512;BME280;40419;47.438;19.026;2023-02-16T11:13:25;100998.88;;;5.25;100.00
54512;BME280;40419;47.438;19.026;2023-02-16T11:16:02;100993.81;;;5.31;100.00
54512;BME280;40419;47.438;19.026;2023-02-16T11:18:43;100999.47;;;5.28;100.00
54512;BME280;40419;47.438;19.026;2023-02-16T11:21:10;100989.84;;;5.36;100.00
54512;BME280;40419;47.438;19.026;2023-02-16T11:23:42;100983.91;;;5.52;100.00
54512;BME280;40419;47.438;19.026;2023-02-16T11:31:30;100971.03;;;5.65;100.00
54512;BME280;40419;47.438;19.026;2023-02-16T11:34:03;100963.50;;;5.68;100.00
54512;BME280;40419;47.438;19.026;2023-02-16T11:36:36;100959.59;;;5.53;100.00
54512;BME280;40419;47.438;19.026;2023-02-16T11:41:53;100960.13;;;5.66;100.00
54512;BME280;40419;47.438;19.026;2023-02-16T11:44:30;100959.41;;;5.64;100.00
54512;BME280;40419;47.438;19.026;2023-02-16T11:46:59;100953.06;;;5.75;100.00
54512;BME280;40419;47.438;19.026;2023-02-16T11:54:54;100944.25;;;5.83;100.00
54512;BME280;40419;47.438;19.026;2023-02-16T11:57:46;100944.72;;;5.68;100.00
54512;BME280;40419;47.438;19.026;2023-02-16T12:00:14;100944.84;;;5.77;100.00
54512;BME280;40419;47.438;19.026;2023-02-16T12:02:46;100928.44;;;5.70;100.00
54512;BME280;40419;47.438;19.026;2023-02-16T12:08:11;100925.75;;;5.80;100.00
54512;BME280;40419;47.438;19.026;2023-02-16T12:25:18;100891.59;;;6.00;100.00
54512;BME280;40419;47.438;19.026;2023-02-16T12:28:17;100889.91;;;5.99;100.00
54512;BME280;40419;47.438;19.026;2023-02-16T12:33:19;100884.69;;;6.25;100.00
54512;BME280;40419;47.438;19.026;2023-02-16T12:38:47;100878.22;;;6.18;100.00
54512;BME280;40419;47.438;19.026;2023-02-16T12:43:57;100878.59;;;6.23;100.00
54512;BME280;40419;47.438;19.026;2023-02-16T12:46:53;100871.63;;;6.30;100.00
54512;BME280;40419;47.438;19.026;2023-02-16T12:49:26;100860.56;;;6.33;100.00
54512;BME280;40419;47.438;19.026;2023-02-16T12:54:43;100853.97;;;6.46;100.00
54512;BME280;40419;47.438;19.026;2023-02-16T12:57:15;100856.19;;;6.32;99.89
54512;BME280;40419;47.438;19.026;2023-02-16T13:00:13;100847.44;;;6.30;100.00
54512;BME280;40419;47.438;19.026;2023-02-16T13:02:57;100837.88;;;6.18;100.00
54512;BME280;40419;47.438;19.026;2023-02-16T13:05:34;100841.22;;;6.30;100.00
54512;BME280;40419;47.438;19.026;2023-02-16T13:13:35;100826.97;;;6.19;100.00
54512;BME280;40419;47.438;19.026;2023-02-16T13:18:50;100824.38;;;6.28;100.00
54512;BME280;40419;47.438;19.026;2023-02-16T13:45:50;100804.78;;;6.35;100.00
54512;BME280;40419;47.438;19.026;2023-02-16T13:48:52;100795.34;;;6.31;100.00
54512;BME280;40419;47.438;19.026;2023-02-16T13:51:22;100795.25;;;6.23;100.00
54512;BME280;40419;47.438;19.026;2023-02-16T13:54:02;100795.72;;;6.36;100.00
54512;BME280;40419;47.438;19.026;2023-02-16T13:56:35;100796.94;;;6.24;100.00
54512;BME280;40419;47.438;19.026;2023-02-16T14:01:42;100788.25;;;6.30;100.00
54512;BME280;40419;47.438;19.026;2023-02-16T14:06:49;100795.88;;;6.35;100.00
54512;BME280;40419;47.438;19.026;2023-02-16T14:22:20;100783.25;;;6.35;100.00
54512;BME280;40419;47.438;19.026;2023-02-16T14:24:54;100795.03;;;6.34;100.00
54512;BME280;40419;47.438;19.026;2023-02-16T14:27:48;100787.34;;;6.39;99.81
54512;BME280;40419;47.438;19.026;2023-02-16T14:30:18;100790.34;;;6.36;100.00
54512;BME280;40419;47.438;19.026;2023-02-16T14:32:58;100783.38;;;6.16;100.00
54512;BME280;40419;47.438;19.026;2023-02-16T14:35:33;100789.72;;;6.25;100.00
54512;BME280;40419;47.438;19.026;2023-02-16T14:38:16;100785.50;;;6.40;100.00
54512;BME280;40419;47.438;19.026;2023-02-16T14:40:52;100784.13;;;6.36;100.00
54512;BME280;40419;47.438;19.026;2023-02-16T14:57:47;100770.47;;;6.01;100.00
54512;BME280;40419;47.438;19.026;2023-02-16T15:02:56;100776.53;;;6.03;100.00
54512;BME280;40419;47.438;19.026;2023-02-16T15:05:29;100769.34;;;6.04;100.00
54512;BME280;40419;47.438;19.026;2023-02-16T15:10:38;100774.78;;;5.84;100.00
54512;BME280;40419;47.438;19.026;2023-02-16T15:13:06;100771.25;;;5.84;100.00
54512;BME280;40419;47.438;19.026;2023-02-16T15:15:44;100775.03;;;5.91;100.00
54512;BME280;40419;47.438;19.026;2023-02-16T15:18:19;100779.41;;;5.92;100.00
54512;BME280;40419;47.438;19.026;2023-02-16T15:20:50;100766.44;;;5.88;100.00
54512;BME280;40419;47.438;19.026;2023-02-16T15:23:27;100776.75;;;5.82;100.00
54512;BME280;40419;47.438;19.026;2023-02-16T15:25:55;100765.66;;;5.67;100.00
54512;BME280;40419;47.438;19.026;2023-02-16T15:28:34;100769.66;;;5.63;100.00
54512;BME280;40419;47.438;19.026;2023-02-16T15:31:02;100768.16;;;5.79;100.00
54512;BME280;40419;47.438;19.026;2023-02-16T15:33:39;100759.59;;;5.65;100.00
54512;BME280;40419;47.438;19.026;2023-02-16T15:36:12;100769.25;;;5.58;100.00
54512;BME280;40419;47.438;19.026;2023-02-16T15:38:58;100768.84;;;5.53;100.00
54512;BME280;40419;47.438;19.026;2023-02-16T15:41:29;100779.22;;;5.38;100.00
54512;BME280;40419;47.438;19.026;2023-02-16T15:43:58;100769.28;;;5.48;100.00
54512;BME280;40419;47.438;19.026;2023-02-16T15:46:31;100775.69;;;5.38;100.00
54512;BME280;40419;47.438;19.026;2023-02-16T15:49:20;100774.59;;;5.30;100.00
54512;BME280;40419;47.438;19.026;2023-02-16T15:51:48;100767.84;;;5.17;100.00
54512;BME280;40419;47.438;19.026;2023-02-16T15:54:39;100769.66;;;5.16;100.00
54512;BME280;40419;47.438;19.026;2023-02-16T15:59:48;100762.38;;;4.89;100.00
54512;BME280;40419;47.438;19.026;2023-02-16T16:02:35;100762.41;;;4.79;100.00
54512;BME280;40419;47.438;19.026;2023-02-16T16:05:06;100767.50;;;4.82;100.00
54512;BME280;40419;47.438;19.026;2023-02-16T16:07:39;100765.22;;;4.68;100.00
54512;BME280;40419;47.438;19.026;2023-02-16T16:10:45;100772.19;;;4.60;100.00
54512;BME280;40419;47.438;19.026;2023-02-16T16:13:31;100769.19;;;4.54;100.00
54512;BME280;40419;47.438;19.026;2023-02-16T16:15:58;100768.47;;;4.61;100.00